createdAt,value
2022-09-22T00:01:18.372Z,101160.22
2022-09-22T00:03:50.487Z,101160.47
2022-09-22T00:06:29.133Z,101159.41
2022-09-22T00:09:00.498Z,101162.19
2022-09-22T00:11:37.628Z,101163.91
2022-09-22T00:14:05.854Z,101167.34
2022-09-22T00:16:37.209Z,101163.84
2022-09-22T00:19:09.065Z,101160.38
2022-09-22T00:21:36.563Z,101163.00
2022-09-22T00:24:05.011Z,101159.44
2022-09-22T00:26:31.600Z,101162.06
2022-09-22T00:28:58.539Z,101162.03
2022-09-22T00:31:25.859Z,101165.69
2022-09-22T00:33:54.041Z,101172.69
2022-09-22T00:36:23.711Z,101165.72
2022-09-22T00:38:51.430Z,101163.97
2022-09-22T00:41:24.828Z,101164.00
2022-09-22T00:44:26.666Z,101158.59
2022-09-22T00:47:08.585Z,101162.16
2022-09-22T00:49:59.444Z,101165.69
2022-09-22T00:53:01.969Z,101159.41
2022-09-22T00:56:30.156Z,101160.22
2022-09-22T00:59:18.812Z,101156.78
2022-09-22T01:02:06.545Z,101161.09
2022-09-22T01:04:53.924Z,101159.44
2022-09-22T01:07:24.988Z,101151.63
2022-09-22T01:09:53.010Z,101151.63
2022-09-22T01:12:19.921Z,101151.63
2022-09-22T01:15:05.150Z,101146.56
2022-09-22T01:17:56.368Z,101140.34
2022-09-22T01:20:54.482Z,101135.31
2022-09-22T01:23:29.304Z,101133.47
2022-09-22T01:26:15.779Z,101139.59
2022-09-22T01:28:57.539Z,101138.59
2022-09-22T01:31:30.383Z,101134.28
2022-09-22T01:34:06.158Z,101137.72
2022-09-22T01:36:53.852Z,101131.72
2022-09-22T01:39:45.001Z,101134.47
2022-09-22T01:42:18.336Z,101128.50
2022-09-22T01:44:54.125Z,101127.75
2022-09-22T01:47:29.082Z,101122.41
2022-09-22T01:50:04.801Z,101119.84
2022-09-22T01:52:33.721Z,101118.31
2022-09-22T01:55:16.741Z,101117.44
2022-09-22T01:58:18.401Z,101126.91
2022-09-22T02:00:54.325Z,101124.38
2022-09-22T02:03:32.055Z,101123.34
2022-09-22T02:06:12.488Z,101122.75
2022-09-22T02:08:45.468Z,101119.28
2022-09-22T02:11:15.366Z,101123.53
2022-09-22T02:13:44.213Z,101122.66
2022-09-22T02:16:14.366Z,101122.66
2022-09-22T02:19:11.886Z,101131.34
2022-09-22T02:21:42.031Z,101126.13
2022-09-22T02:24:26.652Z,101124.47
2022-09-22T02:26:53.949Z,101122.66
2022-09-22T02:29:22.841Z,101118.41
2022-09-22T02:31:50.391Z,101125.41
2022-09-22T02:34:17.882Z,101121.06
2022-09-22T02:37:00.346Z,101127.19
2022-09-22T02:39:34.784Z,101124.63
2022-09-22T02:42:28.214Z,101123.88
2022-09-22T02:45:26.641Z,101123.88
2022-09-22T02:48:02.401Z,101124.72
2022-09-22T02:50:30.370Z,101121.34
2022-09-22T02:53:02.921Z,101120.53
2022-09-22T02:55:29.465Z,101120.50
2022-09-22T02:57:56.534Z,101119.72
2022-09-22T03:00:23.377Z,101124.09
2022-09-22T03:02:49.815Z,101117.31
2022-09-22T03:05:16.477Z,101114.78
2022-09-22T03:07:42.953Z,101118.28
2022-09-22T03:10:11.252Z,101112.13
2022-09-22T03:13:02.336Z,101107.88
2022-09-22T03:15:29.436Z,101114.84
2022-09-22T03:17:56.202Z,101113.25
2022-09-22T03:20:23.040Z,101109.84
2022-09-22T03:22:49.678Z,101108.91
2022-09-22T03:25:16.504Z,101099.41
2022-09-22T03:27:42.946Z,101106.25
2022-09-22T03:30:10.186Z,101102.84
2022-09-22T03:32:37.180Z,101104.50
2022-09-22T03:35:04.312Z,101100.09
2022-09-22T03:37:32.787Z,101101.84
2022-09-22T03:40:00.037Z,101102.78
2022-09-22T03:42:26.455Z,101104.50
2022-09-22T03:44:52.899Z,101103.84
2022-09-22T03:47:20.039Z,101109.91
2022-09-22T03:49:46.486Z,101110.78
2022-09-22T03:52:13.504Z,101103.03
2022-09-22T03:54:39.903Z,101104.75
2022-09-22T03:57:06.361Z,101105.72
2022-09-22T03:59:33.022Z,101097.06
2022-09-22T04:02:01.213Z,101103.09
2022-09-22T04:04:28.631Z,101104.03
2022-09-22T04:06:55.580Z,101097.13
2022-09-22T04:09:22.098Z,101102.38
2022-09-22T04:11:48.991Z,101092.03
2022-09-22T04:14:15.416Z,101089.47
2022-09-22T04:16:42.581Z,101087.69
2022-09-22T04:19:13.850Z,101091.34
2022-09-22T04:21:40.315Z,101089.47
2022-09-22T04:24:10.771Z,101092.91
2022-09-22T04:26:51.827Z,101084.25
2022-09-22T04:29:27.015Z,101085.97
2022-09-22T04:31:54.519Z,101079.16
2022-09-22T04:34:21.055Z,101083.56
2022-09-22T04:36:47.980Z,101084.31
2022-09-22T04:39:14.375Z,101078.31
2022-09-22T04:41:40.992Z,101084.38
2022-09-22T04:44:07.861Z,101086.03
2022-09-22T04:46:34.361Z,101077.38
2022-09-22T04:49:01.104Z,101080.97
2022-09-22T04:51:27.466Z,101079.25
2022-09-22T04:53:54.072Z,101078.47
2022-09-22T04:56:22.000Z,101081.84
2022-09-22T04:58:48.383Z,101085.41
2022-09-22T05:01:15.067Z,101085.47
2022-09-22T05:03:41.693Z,101082.75
2022-09-22T05:06:08.184Z,101081.91
2022-09-22T05:08:35.228Z,101092.31
2022-09-22T05:11:01.716Z,101088.84
2022-09-22T05:13:30.147Z,101085.41
2022-09-22T05:15:57.062Z,101084.50
2022-09-22T05:18:23.528Z,101083.69
2022-09-22T05:20:50.058Z,101093.22
2022-09-22T05:23:16.463Z,101099.25
2022-09-22T05:25:44.661Z,101105.38
2022-09-22T05:28:11.926Z,101102.78
2022-09-22T05:30:38.316Z,101106.22
2022-09-22T05:33:05.050Z,101104.53
2022-09-22T05:35:36.446Z,101105.34
2022-09-22T05:38:03.732Z,101107.03
2022-09-22T05:40:30.960Z,101114.81
2022-09-22T05:42:57.960Z,101115.66
2022-09-22T05:45:24.590Z,101113.03
2022-09-22T05:47:51.849Z,101110.47
2022-09-22T05:50:19.789Z,101116.47
2022-09-22T05:52:46.379Z,101112.22
2022-09-22T05:55:13.636Z,101119.97
2022-09-22T05:57:40.061Z,101119.94
2022-09-22T06:00:11.516Z,101116.34
2022-09-22T06:02:44.238Z,101118.91
2022-09-22T06:05:10.811Z,101115.31
2022-09-22T06:07:37.434Z,101108.50
2022-09-22T06:10:04.355Z,101114.31
2022-09-22T06:12:31.082Z,101116.72
2022-09-22T06:14:57.544Z,101114.00
2022-09-22T06:17:24.007Z,101112.28
2022-09-22T06:19:50.610Z,101112.97
2022-09-22T06:22:18.325Z,101110.41
2022-09-22T06:24:45.191Z,101119.91
2022-09-22T06:27:11.838Z,101115.38
2022-09-22T06:29:39.180Z,101115.38
2022-09-22T06:32:08.146Z,101115.25
2022-09-22T06:34:38.256Z,101108.97
2022-09-22T06:37:08.824Z,101114.97
2022-09-22T06:39:38.048Z,101109.69
2022-09-22T06:42:05.616Z,101105.94
2022-09-22T06:44:34.047Z,101102.44
2022-09-22T06:47:05.171Z,101109.16
2022-09-22T06:49:31.729Z,101097.72
2022-09-22T06:51:58.504Z,101096.75
2022-09-22T06:54:25.819Z,101100.16
2022-09-22T06:56:53.026Z,101100.69
2022-09-22T06:59:19.901Z,101101.34
2022-09-22T07:01:46.914Z,101101.91
2022-09-22T07:04:14.064Z,101095.59
2022-09-22T07:06:40.790Z,101091.81
2022-09-22T07:09:09.075Z,101095.75
2022-09-22T07:11:39.747Z,101098.94
2022-09-22T07:14:06.544Z,101098.75
2022-09-22T07:16:33.303Z,101104.44
2022-09-22T07:18:59.870Z,101098.50
2022-09-22T07:21:32.730Z,101094.88
2022-09-22T07:23:59.533Z,101105.38
2022-09-22T07:26:29.679Z,101097.25
2022-09-22T07:28:58.997Z,101100.63
2022-09-22T07:31:29.025Z,101088.91
2022-09-22T07:33:56.797Z,101092.81
2022-09-22T07:36:28.206Z,101091.25
2022-09-22T07:38:57.777Z,101092.84
2022-09-22T07:41:29.305Z,101093.34
2022-09-22T07:44:20.894Z,101093.94
2022-09-22T07:46:47.595Z,101099.75
2022-09-22T07:49:19.478Z,101096.41
2022-09-22T07:51:46.220Z,101100.84
2022-09-22T07:54:12.980Z,101088.84
2022-09-22T07:56:42.071Z,101089.25
2022-09-22T07:59:10.926Z,101096.28
2022-09-22T08:01:41.976Z,101092.94
2022-09-22T08:04:12.071Z,101085.66
2022-09-22T08:06:38.806Z,101089.72
2022-09-22T08:09:08.072Z,101092.19
2022-09-22T08:11:34.795Z,101098.19
2022-09-22T08:14:03.699Z,101086.22
2022-09-22T08:16:36.842Z,101088.41
2022-09-22T08:19:10.697Z,101086.59
2022-09-22T08:21:47.729Z,101088.81
2022-09-22T08:24:20.995Z,101087.91
2022-09-22T08:26:49.992Z,101094.56
2022-09-22T08:29:16.493Z,101097.06
2022-09-22T08:31:45.259Z,101096.72
2022-09-22T08:34:14.137Z,101090.25
2022-09-22T08:36:46.166Z,101088.59
2022-09-22T08:39:13.029Z,101091.69
2022-09-22T08:41:48.800Z,101092.31
2022-09-22T08:44:28.032Z,101088.22
2022-09-22T08:47:00.777Z,101088.63
2022-09-22T08:49:55.164Z,101083.59
2022-09-22T08:52:40.362Z,101080.53
2022-09-22T08:55:19.790Z,101078.41
2022-09-22T08:58:06.500Z,101088.66
2022-09-22T09:00:42.722Z,101087.38
2022-09-22T09:03:44.295Z,101084.22
2022-09-22T09:06:28.325Z,101083.38
2022-09-22T09:09:02.605Z,101084.88
2022-09-22T09:12:12.267Z,101086.84
2022-09-22T09:15:00.340Z,101075.44
2022-09-22T09:17:33.532Z,101070.94
2022-09-22T09:20:17.009Z,101068.00
2022-09-22T09:22:57.481Z,101072.53
2022-09-22T09:25:37.118Z,101071.19
2022-09-22T09:28:07.120Z,101076.22
2022-09-22T09:30:44.612Z,101076.53
2022-09-22T09:33:28.831Z,101069.34
2022-09-22T09:35:56.018Z,101064.50
2022-09-22T09:38:30.807Z,101063.28
2022-09-22T09:41:14.599Z,101066.09
2022-09-22T09:43:43.020Z,101052.88
2022-09-22T09:46:26.639Z,101058.03
2022-09-22T09:49:00.098Z,101062.59
2022-09-22T09:51:28.266Z,101053.84
2022-09-22T09:53:55.687Z,101050.47
2022-09-22T09:56:24.784Z,101047.75
2022-09-22T09:59:31.634Z,101048.22
2022-09-22T10:02:02.927Z,101043.28
2022-09-22T10:04:32.821Z,101046.16
2022-09-22T10:07:15.641Z,101039.91
2022-09-22T10:09:43.666Z,101034.06
2022-09-22T10:12:24.463Z,101041.56
2022-09-22T10:14:53.812Z,101030.94
2022-09-22T10:17:23.179Z,101032.72
2022-09-22T10:19:50.806Z,101030.00
2022-09-22T10:22:24.742Z,101024.53
2022-09-22T10:25:01.365Z,101019.84
2022-09-22T10:27:30.371Z,101007.94
2022-09-22T10:30:21.638Z,101019.84
2022-09-22T10:33:14.581Z,101011.41
2022-09-22T10:35:44.211Z,101018.00
2022-09-22T10:38:23.116Z,101019.38
2022-09-22T10:41:02.568Z,101011.78
2022-09-22T10:43:49.860Z,101005.06
2022-09-22T10:46:41.863Z,101002.28
2022-09-22T10:49:38.337Z,101000.66
2022-09-22T10:52:30.632Z,100995.19
2022-09-22T10:55:07.850Z,100998.16
2022-09-22T10:57:47.288Z,100992.59
2022-09-22T11:00:17.299Z,100989.00
2022-09-22T11:03:17.788Z,100990.72
2022-09-22T11:06:31.457Z,100982.56
2022-09-22T11:12:16.318Z,100978.19
2022-09-22T11:14:51.941Z,100978.06
2022-09-22T11:17:39.031Z,100983.34
2022-09-22T11:20:27.504Z,100971.41
2022-09-22T11:23:09.434Z,100965.03
2022-09-22T11:25:58.575Z,100964.06
2022-09-22T11:28:31.112Z,100972.88
2022-09-22T11:30:58.997Z,100960.38
2022-09-22T11:33:46.260Z,100963.03
2022-09-22T11:36:31.618Z,100959.13
2022-09-22T11:39:19.663Z,100957.91
2022-09-22T11:42:01.210Z,100957.44
2022-09-22T11:44:36.165Z,100956.66
2022-09-22T11:47:05.655Z,100946.19
2022-09-22T11:49:32.022Z,100941.75
2022-09-22T11:52:17.277Z,100940.44
2022-09-22T11:55:00.612Z,100930.59
2022-09-22T11:57:32.448Z,100936.28
2022-09-22T12:00:17.366Z,100929.06
2022-09-22T12:03:11.173Z,100917.03
2022-09-22T12:05:48.427Z,100914.00
2022-09-22T12:08:20.521Z,100912.31
2022-09-22T12:10:49.646Z,100916.19
2022-09-22T12:13:22.902Z,100902.94
2022-09-22T12:16:08.775Z,100914.28
2022-09-22T12:18:53.809Z,100903.22
2022-09-22T12:21:45.746Z,100904.81
2022-09-22T12:24:12.778Z,100905.59
2022-09-22T12:26:42.163Z,100903.97
2022-09-22T12:29:23.507Z,100904.63
2022-09-22T12:31:55.386Z,100905.03
2022-09-22T12:34:29.376Z,100902.59
2022-09-22T12:36:59.743Z,100902.78
2022-09-22T12:39:30.866Z,100897.22
2022-09-22T12:42:00.852Z,100905.63
2022-09-22T12:44:32.630Z,100896.44
2022-09-22T12:47:17.837Z,100898.94
2022-09-22T12:49:51.232Z,100891.81
2022-09-22T12:52:57.293Z,100894.50
2022-09-22T12:55:29.998Z,100894.13
2022-09-22T12:58:01.296Z,100896.28
2022-09-22T13:00:39.518Z,100889.44
2022-09-22T13:03:24.522Z,100878.16
2022-09-22T13:05:57.646Z,100886.09
2022-09-22T13:08:30.246Z,100874.50
2022-09-22T13:11:01.262Z,100866.66
2022-09-22T13:13:32.091Z,100869.72
2022-09-22T13:16:01.563Z,100868.59
2022-09-22T13:18:35.646Z,100872.50
2022-09-22T13:21:03.995Z,100872.78
2022-09-22T13:23:30.665Z,100865.50
2022-09-22T13:26:08.595Z,100861.09
2022-09-22T13:28:35.110Z,100869.66
2022-09-22T13:31:14.550Z,100857.44
2022-09-22T13:33:41.548Z,100849.72
2022-09-22T13:36:14.310Z,100843.25
2022-09-22T13:38:44.925Z,100845.31
2022-09-22T13:41:24.438Z,100845.03
2022-09-22T13:43:55.488Z,100843.63
2022-09-22T13:46:26.018Z,100832.56
2022-09-22T13:48:55.307Z,100828.56
2022-09-22T13:51:21.979Z,100827.72
2022-09-22T13:53:52.691Z,100831.94
2022-09-22T13:56:22.091Z,100830.50
2022-09-22T13:58:51.193Z,100821.25
2022-09-22T14:01:20.475Z,100819.47
2022-09-22T14:03:49.559Z,100819.22
2022-09-22T14:06:28.587Z,100819.16
2022-09-22T14:08:56.544Z,100818.06
2022-09-22T14:11:27.584Z,100802.34
2022-09-22T14:13:57.429Z,100817.13
2022-09-22T14:16:27.111Z,100812.19
2022-09-22T14:19:19.436Z,100811.13
2022-09-22T14:21:49.487Z,100804.94
2022-09-22T14:24:16.485Z,100801.34
2022-09-22T14:26:52.310Z,100805.31
2022-09-22T14:29:31.681Z,100796.22
2022-09-22T14:32:08.271Z,100791.28
2022-09-22T14:34:44.484Z,100784.88
2022-09-22T14:37:20.538Z,100785.88
2022-09-22T14:39:50.103Z,100784.22
2022-09-22T14:42:22.114Z,100788.13
2022-09-22T14:44:51.156Z,100777.28
2022-09-22T14:47:27.475Z,100782.63
2022-09-22T14:50:19.747Z,100786.47
2022-09-22T14:53:01.695Z,100778.19
2022-09-22T14:55:34.562Z,100775.06
2022-09-22T14:58:23.375Z,100772.34
2022-09-22T15:01:25.451Z,100777.94
2022-09-22T15:04:01.185Z,100767.81
2022-09-22T15:06:39.674Z,100770.91
2022-09-22T15:09:12.835Z,100770.88
2022-09-22T15:11:48.145Z,100768.38
2022-09-22T15:14:42.312Z,100762.22
2022-09-22T15:17:54.127Z,100765.94
2022-09-22T15:20:38.573Z,100766.53
2022-09-22T15:23:07.754Z,100757.97
2022-09-22T15:25:35.893Z,100772.53
2022-09-22T15:28:07.432Z,100768.00
2022-09-22T15:30:33.969Z,100765.19
2022-09-22T15:33:00.368Z,100766.00
2022-09-22T15:35:27.888Z,100768.63
2022-09-22T15:37:57.806Z,100768.97
2022-09-22T15:40:24.560Z,100769.28
2022-09-22T15:43:11.787Z,100766.75
2022-09-22T15:45:46.610Z,100757.34
2022-09-22T15:48:24.856Z,100754.75
2022-09-22T15:50:52.159Z,100753.25
2022-09-22T15:53:18.770Z,100752.47
2022-09-22T15:55:45.273Z,100753.56
2022-09-22T15:58:14.693Z,100751.63
2022-09-22T16:00:41.169Z,100754.81
2022-09-22T16:03:16.509Z,100753.44
2022-09-22T16:05:44.662Z,100749.38
2022-09-22T16:08:16.077Z,100744.59
2022-09-22T16:10:44.399Z,100743.31
2022-09-22T16:13:12.287Z,100745.44
2022-09-22T16:15:39.357Z,100747.69
2022-09-22T16:18:08.575Z,100742.47
2022-09-22T16:20:36.948Z,100745.72
2022-09-22T16:23:05.551Z,100740.59
2022-09-22T16:25:32.783Z,100737.41
2022-09-22T16:27:59.536Z,100738.91
2022-09-22T16:30:27.393Z,100733.28
2022-09-22T16:32:55.316Z,100745.72
2022-09-22T16:35:24.470Z,100745.81
2022-09-22T16:37:55.731Z,100755.03
2022-09-22T16:40:24.202Z,100750.56
2022-09-22T16:42:51.716Z,100750.81
2022-09-22T16:45:38.197Z,100752.09
2022-09-22T16:48:05.437Z,100749.66
2022-09-22T16:50:32.022Z,100750.09
2022-09-22T16:52:58.512Z,100752.06
2022-09-22T16:55:24.923Z,100746.34
2022-09-22T16:57:51.455Z,100756.13
2022-09-22T17:00:18.409Z,100744.03
2022-09-22T17:02:47.000Z,100752.47
2022-09-22T17:05:14.715Z,100748.69
2022-09-22T17:07:41.182Z,100751.41
2022-09-22T17:10:07.935Z,100757.38
2022-09-22T17:12:35.276Z,100757.25
2022-09-22T17:15:01.639Z,100749.97
2022-09-22T17:17:29.453Z,100755.75
2022-09-22T17:19:56.130Z,100755.31
2022-09-22T17:22:23.984Z,100760.19
2022-09-22T17:24:50.440Z,100757.72
2022-09-22T17:27:18.595Z,100761.91
2022-09-22T17:29:45.253Z,100757.06
2022-09-22T17:32:12.020Z,100760.88
2022-09-22T17:34:38.483Z,100761.53
2022-09-22T17:37:05.426Z,100760.06
2022-09-22T17:39:35.179Z,100761.47
2022-09-22T17:42:01.652Z,100756.03
2022-09-22T17:44:33.355Z,100758.06
2022-09-22T17:47:18.626Z,100763.13
2022-09-22T17:50:03.841Z,100764.59
2022-09-22T17:52:33.777Z,100759.91
2022-09-22T17:55:09.205Z,100754.34
2022-09-22T17:57:41.290Z,100757.03
2022-09-22T18:00:12.017Z,100758.53
2022-09-22T18:02:41.477Z,100761.56
2022-09-22T18:05:11.215Z,100757.50
2022-09-22T18:07:40.414Z,100760.91
2022-09-22T18:10:09.450Z,100764.81
2022-09-22T18:12:36.627Z,100763.25
2022-09-22T18:15:05.254Z,100766.88
2022-09-22T18:17:36.170Z,100758.63
2022-09-22T18:20:02.998Z,100761.47
2022-09-22T18:22:30.176Z,100759.69
2022-09-22T18:24:56.722Z,100755.84
2022-09-22T18:27:27.203Z,100757.06
2022-09-22T18:29:58.252Z,100760.03
2022-09-22T18:32:26.835Z,100760.50
2022-09-22T18:34:54.441Z,100756.00
2022-09-22T18:37:23.588Z,100760.94
2022-09-22T18:39:50.445Z,100759.63
2022-09-22T18:42:18.932Z,100756.53
2022-09-22T18:44:47.173Z,100761.16
2022-09-22T18:47:19.335Z,100764.75
2022-09-22T18:49:48.028Z,100770.75
2022-09-22T18:52:16.130Z,100777.50
2022-09-22T18:54:43.834Z,100769.22
2022-09-22T18:57:13.831Z,100769.41
2022-09-22T18:59:40.275Z,100779.31
2022-09-22T19:02:11.841Z,100777.38
2022-09-22T19:04:39.079Z,100779.66
2022-09-22T19:07:24.214Z,100782.19
2022-09-22T19:09:52.390Z,100780.91
2022-09-22T19:12:20.296Z,100783.66
2022-09-22T19:14:48.512Z,100784.16
2022-09-22T19:17:17.169Z,100785.78
2022-09-22T19:19:46.059Z,100784.34
2022-09-22T19:22:12.833Z,100785.91
2022-09-22T19:24:41.018Z,100782.47
2022-09-22T19:27:09.047Z,100782.00
2022-09-22T19:29:36.200Z,100780.66
2022-09-22T19:32:04.647Z,100779.97
2022-09-22T19:34:31.926Z,100776.31
2022-09-22T19:36:58.684Z,100776.56
2022-09-22T19:39:26.058Z,100775.41
2022-09-22T19:41:53.135Z,100772.78
2022-09-22T19:44:22.214Z,100771.00
2022-09-22T19:46:48.847Z,100768.63
2022-09-22T19:49:15.990Z,100770.41
2022-09-22T19:51:42.763Z,100768.44
2022-09-22T19:54:09.520Z,100766.31
2022-09-22T19:56:36.621Z,100770.91
2022-09-22T19:59:04.090Z,100764.28
2022-09-22T20:01:40.974Z,100764.47
2022-09-22T20:04:14.865Z,100766.97
2022-09-22T20:06:41.500Z,100763.44
2022-09-22T20:09:09.097Z,100763.69
2022-09-22T20:11:48.220Z,100760.28
2022-09-22T20:14:27.100Z,100753.16
2022-09-22T20:16:53.485Z,100764.00
2022-09-22T20:19:21.768Z,100750.59
2022-09-22T20:21:50.832Z,100759.38
2022-09-22T20:24:19.776Z,100759.25
2022-09-22T20:26:46.646Z,100759.31
2022-09-22T20:29:17.455Z,100762.66
2022-09-22T20:31:44.094Z,100759.34
2022-09-22T20:34:15.355Z,100753.81
2022-09-22T20:36:43.163Z,100758.25
2022-09-22T20:39:15.029Z,100749.78
2022-09-22T20:41:42.688Z,100749.75
2022-09-22T20:44:14.536Z,100744.63
2022-09-22T20:46:42.755Z,100745.00
2022-09-22T20:49:14.156Z,100744.88
2022-09-22T20:51:41.853Z,100742.22
2022-09-22T20:54:09.330Z,100738.16
2022-09-22T20:56:42.070Z,100738.16
2022-09-22T20:59:09.267Z,100737.44
2022-09-22T21:01:36.831Z,100740.44
2022-09-22T21:04:03.526Z,100730.06
2022-09-22T21:06:31.162Z,100726.19
2022-09-22T21:09:16.565Z,100726.56
2022-09-22T21:11:43.896Z,100730.34
2022-09-22T21:14:11.072Z,100726.34
2022-09-22T21:16:39.726Z,100728.03
2022-09-22T21:19:07.455Z,100723.59
2022-09-22T21:21:38.320Z,100729.84
2022-09-22T21:24:04.970Z,100730.50
2022-09-22T21:26:32.680Z,100723.03
2022-09-22T21:28:59.428Z,100721.78
2022-09-22T21:31:26.486Z,100727.00
2022-09-22T21:33:53.575Z,100713.66
2022-09-22T21:36:26.987Z,100710.06
2022-09-22T21:38:56.079Z,100715.09
2022-09-22T21:41:24.929Z,100714.19
2022-09-22T21:43:51.923Z,100706.63
2022-09-22T21:46:24.285Z,100703.94
2022-09-22T21:48:54.212Z,100703.25
2022-09-22T21:51:21.889Z,100702.28
2022-09-22T21:53:52.801Z,100705.69
2022-09-22T21:56:20.628Z,100701.66
2022-09-22T21:58:49.600Z,100699.94
2022-09-22T22:01:19.581Z,100703.38
2022-09-22T22:03:47.770Z,100692.06
2022-09-22T22:06:18.687Z,100688.94
2022-09-22T22:08:47.242Z,100688.03
2022-09-22T22:11:22.007Z,100687.00
2022-09-22T22:13:52.262Z,100677.00
2022-09-22T22:16:20.986Z,100677.81
2022-09-22T22:18:48.069Z,100678.59
2022-09-22T22:21:17.950Z,100675.84
2022-09-22T22:23:46.488Z,100673.16
2022-09-22T22:26:16.325Z,100680.25
2022-09-22T22:28:44.366Z,100676.84
2022-09-22T22:31:14.416Z,100677.84
2022-09-22T22:33:42.322Z,100677.00
2022-09-22T22:36:14.555Z,100676.16
2022-09-22T22:38:42.325Z,100679.66
2022-09-22T22:41:12.748Z,100679.50
2022-09-22T22:43:43.561Z,100681.28
2022-09-22T22:46:16.106Z,100677.00
2022-09-22T22:48:44.012Z,100674.56
2022-09-22T22:51:13.813Z,100684.19
2022-09-22T22:53:41.419Z,100679.28
2022-09-22T22:56:12.421Z,100683.00
2022-09-22T22:58:39.039Z,100685.75
2022-09-22T23:01:10.529Z,100684.97
2022-09-22T23:03:49.099Z,100692.19
2022-09-22T23:06:18.424Z,100689.50
2022-09-22T23:08:44.857Z,100688.72
2022-09-22T23:11:14.027Z,100689.50
2022-09-22T23:13:50.882Z,100692.13
2022-09-22T23:16:23.685Z,100684.16
2022-09-22T23:18:52.241Z,100682.34
2022-09-22T23:21:21.579Z,100689.19
2022-09-22T23:23:49.550Z,100683.31
2022-09-22T23:26:17.383Z,100679.06
2022-09-22T23:28:44.362Z,100679.97
2022-09-22T23:31:17.523Z,100683.53
2022-09-22T23:33:46.004Z,100681.94
2022-09-22T23:36:17.016Z,100673.41
2022-09-22T23:38:43.578Z,100671.75
2022-09-22T23:41:10.912Z,100675.53
2022-09-22T23:43:37.612Z,100665.09
2022-09-22T23:46:04.776Z,100660.03
2022-09-22T23:48:32.546Z,100666.25
2022-09-22T23:51:00.468Z,100666.16
2022-09-22T23:53:35.990Z,100660.25
2022-09-22T23:56:04.119Z,100649.66
2022-09-22T23:58:30.787Z,100657.38
